sensor_id;sensor_type;location;lat;lon;timestamp;temperature;humidity
65707;SHT31;52423;43.512;5.220;2023-05-07T00:02:22;16.27;67.33
65707;SHT31;52423;43.512;5.220;2023-05-07T00:04:48;16.27;67.61
65707;SHT31;52423;43.512;5.220;2023-05-07T00:07:14;16.35;67.11
65707;SHT31;52423;43.512;5.220;2023-05-07T00:09:40;16.31;67.05
65707;SHT31;52423;43.512;5.220;2023-05-07T00:12:05;16.30;67.09
65707;SHT31;52423;43.512;5.220;2023-05-07T00:14:31;16.38;66.91
65707;SHT31;52423;43.512;5.220;2023-05-07T00:16:56;16.23;67.04
65707;SHT31;52423;43.512;5.220;2023-05-07T00:19:22;16.21;67.07
65707;SHT31;52423;43.512;5.220;2023-05-07T00:21:47;16.10;67.22
65707;SHT31;52423;43.512;5.220;2023-05-07T00:24:12;16.00;67.30
65707;SHT31;52423;43.512;5.220;2023-05-07T00:26:38;15.94;67.50
65707;SHT31;52423;43.512;5.220;2023-05-07T00:29:03;15.97;67.35
65707;SHT31;52423;43.512;5.220;2023-05-07T00:31:28;15.93;67.15
65707;SHT31;52423;43.512;5.220;2023-05-07T00:33:54;16.00;67.26
65707;SHT31;52423;43.512;5.220;2023-05-07T00:36:19;16.00;67.07
65707;SHT31;52423;43.512;5.220;2023-05-07T00:38:45;15.94;67.17
65707;SHT31;52423;43.512;5.220;2023-05-07T00:41:10;16.04;67.22
65707;SHT31;52423;43.512;5.220;2023-05-07T00:43:35;15.92;67.07
65707;SHT31;52423;43.512;5.220;2023-05-07T00:46:01;15.79;67.35
65707;SHT31;52423;43.512;5.220;2023-05-07T00:48:26;15.70;67.59
65707;SHT31;52423;43.512;5.220;2023-05-07T00:50:52;15.72;67.36
65707;SHT31;52423;43.512;5.220;2023-05-07T00:53:17;15.66;67.41
65707;SHT31;52423;43.512;5.220;2023-05-07T00:55:43;15.67;67.66
65707;SHT31;52423;43.512;5.220;2023-05-07T00:58:08;15.73;67.47
65707;SHT31;52423;43.512;5.220;2023-05-07T01:00:34;15.79;67.20
65707;SHT31;52423;43.512;5.220;2023-05-07T01:02:59;15.81;67.29
65707;SHT31;52423;43.512;5.220;2023-05-07T01:05:26;15.87;67.20
65707;SHT31;52423;43.512;5.220;2023-05-07T01:07:53;15.85;67.07
65707;SHT31;52423;43.512;5.220;2023-05-07T01:10:20;15.90;66.84
65707;SHT31;52423;43.512;5.220;2023-05-07T01:12:46;15.96;66.81
65707;SHT31;52423;43.512;5.220;2023-05-07T01:15:12;15.97;66.60
65707;SHT31;52423;43.512;5.220;2023-05-07T01:17:39;15.87;66.69
65707;SHT31;52423;43.512;5.220;2023-05-07T01:20:05;15.78;66.76
65707;SHT31;52423;43.512;5.220;2023-05-07T01:22:36;15.73;66.69
65707;SHT31;52423;43.512;5.220;2023-05-07T01:25:03;15.59;66.69
65707;SHT31;52423;43.512;5.220;2023-05-07T01:27:28;15.55;66.66
65707;SHT31;52423;43.512;5.220;2023-05-07T01:29:54;15.49;66.58
65707;SHT31;52423;43.512;5.220;2023-05-07T01:32:24;15.39;66.35
65707;SHT31;52423;43.512;5.220;2023-05-07T01:34:52;15.28;66.60
65707;SHT31;52423;43.512;5.220;2023-05-07T01:37:20;15.32;66.56
65707;SHT31;52423;43.512;5.220;2023-05-07T01:39:46;15.32;66.24
65707;SHT31;52423;43.512;5.220;2023-05-07T01:42:12;15.28;66.07
65707;SHT31;52423;43.512;5.220;2023-05-07T01:44:37;15.35;65.90
65707;SHT31;52423;43.512;5.220;2023-05-07T01:47:03;15.45;66.05
65707;SHT31;52423;43.512;5.220;2023-05-07T01:49:29;15.36;65.71
65707;SHT31;52423;43.512;5.220;2023-05-07T01:51:55;15.42;65.48
65707;SHT31;52423;43.512;5.220;2023-05-07T01:54:25;15.62;65.50
65707;SHT31;52423;43.512;5.220;2023-05-07T01:56:52;15.79;64.90
65707;SHT31;52423;43.512;5.220;2023-05-07T01:59:18;15.67;64.17
65707;SHT31;52423;43.512;5.220;2023-05-07T02:01:43;15.62;64.12
65707;SHT31;52423;43.512;5.220;2023-05-07T02:04:08;15.65;64.07
65707;SHT31;52423;43.512;5.220;2023-05-07T02:06:34;15.73;64.36
65707;SHT31;52423;43.512;5.220;2023-05-07T02:09:00;15.82;64.89
65707;SHT31;52423;43.512;5.220;2023-05-07T02:11:25;15.76;63.71
65707;SHT31;52423;43.512;5.220;2023-05-07T02:13:50;15.81;63.13
65707;SHT31;52423;43.512;5.220;2023-05-07T02:16:16;15.73;64.35
65707;SHT31;52423;43.512;5.220;2023-05-07T02:18:41;15.79;64.29
65707;SHT31;52423;43.512;5.220;2023-05-07T02:21:07;15.73;63.54
65707;SHT31;52423;43.512;5.220;2023-05-07T02:23:32;15.76;64.59
65707;SHT31;52423;43.512;5.220;2023-05-07T02:25:58;15.78;63.24
65707;SHT31;52423;43.512;5.220;2023-05-07T02:28:23;15.76;62.94
65707;SHT31;52423;43.512;5.220;2023-05-07T02:30:48;15.89;62.73
65707;SHT31;52423;43.512;5.220;2023-05-07T02:33:14;15.93;63.12
65707;SHT31;52423;43.512;5.220;2023-05-07T02:35:39;15.90;63.22
65707;SHT31;52423;43.512;5.220;2023-05-07T02:38:05;15.85;62.71
65707;SHT31;52423;43.512;5.220;2023-05-07T02:40:30;15.81;62.93
65707;SHT31;52423;43.512;5.220;2023-05-07T02:42:58;15.82;62.94
65707;SHT31;52423;43.512;5.220;2023-05-07T02:45:24;15.93;63.68
65707;SHT31;52423;43.512;5.220;2023-05-07T02:47:49;16.09;63.25
65707;SHT31;52423;43.512;5.220;2023-05-07T02:50:15;16.14;63.06
65707;SHT31;52423;43.512;5.220;2023-05-07T02:52:40;16.27;63.28
65707;SHT31;52423;43.512;5.220;2023-05-07T02:55:06;16.34;63.52
65707;SHT31;52423;43.512;5.220;2023-05-07T02:57:31;16.43;63.82
65707;SHT31;52423;43.512;5.220;2023-05-07T02:59:58;16.43;63.76
65707;SHT31;52423;43.512;5.220;2023-05-07T03:02:23;16.48;62.81
65707;SHT31;52423;43.512;5.220;2023-05-07T03:04:48;16.45;62.69
65707;SHT31;52423;43.512;5.220;2023-05-07T03:07:14;16.40;63.01
65707;SHT31;52423;43.512;5.220;2023-05-07T03:09:39;16.17;63.39
65707;SHT31;52423;43.512;5.220;2023-05-07T03:12:05;16.07;63.27
65707;SHT31;52423;43.512;5.220;2023-05-07T03:14:30;15.82;63.44
65707;SHT31;52423;43.512;5.220;2023-05-07T03:16:55;15.65;63.27
65707;SHT31;52423;43.512;5.220;2023-05-07T03:19:21;15.56;63.23
65707;SHT31;52423;43.512;5.220;2023-05-07T03:21:46;15.48;63.33
65707;SHT31;52423;43.512;5.220;2023-05-07T03:24:12;15.42;63.36
65707;SHT31;52423;43.512;5.220;2023-05-07T03:26:37;15.34;63.69
65707;SHT31;52423;43.512;5.220;2023-05-07T03:29:03;15.41;63.95
65707;SHT31;52423;43.512;5.220;2023-05-07T03:31:28;15.35;63.92
65707;SHT31;52423;43.512;5.220;2023-05-07T03:33:55;15.28;64.11
65707;SHT31;52423;43.512;5.220;2023-05-07T03:36:21;15.34;64.58
65707;SHT31;52423;43.512;5.220;2023-05-07T03:38:47;15.36;64.22
65707;SHT31;52423;43.512;5.220;2023-05-07T03:41:13;15.41;63.98
65707;SHT31;52423;43.512;5.220;2023-05-07T03:43:38;15.55;64.57
65707;SHT31;52423;43.512;5.220;2023-05-07T03:46:04;15.65;64.54
65707;SHT31;52423;43.512;5.220;2023-05-07T03:48:29;15.78;64.07
65707;SHT31;52423;43.512;5.220;2023-05-07T03:50:56;15.86;63.78
65707;SHT31;52423;43.512;5.220;2023-05-07T03:53:21;15.90;64.44
65707;SHT31;52423;43.512;5.220;2023-05-07T03:55:47;15.93;64.53
65707;SHT31;52423;43.512;5.220;2023-05-07T03:58:12;15.97;64.52
65707;SHT31;52423;43.512;5.220;2023-05-07T04:00:37;15.90;64.61
65707;SHT31;52423;43.512;5.220;2023-05-07T04:03:05;15.85;65.14
65707;SHT31;52423;43.512;5.220;2023-05-07T04:05:30;15.94;65.51
65707;SHT31;52423;43.512;5.220;2023-05-07T04:07:57;15.94;65.93
65707;SHT31;52423;43.512;5.220;2023-05-07T04:10:23;15.93;66.40
65707;SHT31;52423;43.512;5.220;2023-05-07T04:12:48;16.00;66.63
65707;SHT31;52423;43.512;5.220;2023-05-07T04:15:14;16.02;67.74
65707;SHT31;52423;43.512;5.220;2023-05-07T04:17:39;16.04;70.33
65707;SHT31;52423;43.512;5.220;2023-05-07T04:20:08;15.72;71.50
65707;SHT31;52423;43.512;5.220;2023-05-07T04:22:34;15.83;73.23
65707;SHT31;52423;43.512;5.220;2023-05-07T04:24:59;15.87;72.63
65707;SHT31;52423;43.512;5.220;2023-05-07T04:27:25;15.87;74.03
65707;SHT31;52423;43.512;5.220;2023-05-07T04:29:51;15.73;71.56
65707;SHT31;52423;43.512;5.220;2023-05-07T04:32:16;15.78;71.30
65707;SHT31;52423;43.512;5.220;2023-05-07T04:34:42;15.72;71.63
65707;SHT31;52423;43.512;5.220;2023-05-07T04:37:08;15.82;71.45
65707;SHT31;52423;43.512;5.220;2023-05-07T04:39:33;15.72;71.06
65707;SHT31;52423;43.512;5.220;2023-05-07T04:42:00;15.59;71.83
65707;SHT31;52423;43.512;5.220;2023-05-07T04:44:25;15.51;71.71
65707;SHT31;52423;43.512;5.220;2023-05-07T04:46:51;15.52;71.13
65707;SHT31;52423;43.512;5.220;2023-05-07T04:49:16;15.45;70.90
65707;SHT31;52423;43.512;5.220;2023-05-07T04:51:42;15.36;70.33
65707;SHT31;52423;43.512;5.220;2023-05-07T04:54:08;15.42;70.13
65707;SHT31;52423;43.512;5.220;2023-05-07T04:56:33;15.42;69.54
65707;SHT31;52423;43.512;5.220;2023-05-07T04:58:58;15.35;69.98
65707;SHT31;52423;43.512;5.220;2023-05-07T05:01:24;15.41;69.53
65707;SHT31;52423;43.512;5.220;2023-05-07T05:03:49;15.41;69.62
65707;SHT31;52423;43.512;5.220;2023-05-07T05:06:15;15.35;69.80
65707;SHT31;52423;43.512;5.220;2023-05-07T05:08:40;15.35;70.48
65707;SHT31;52423;43.512;5.220;2023-05-07T05:11:05;15.39;70.04
65707;SHT31;52423;43.512;5.220;2023-05-07T05:13:31;15.44;70.13
65707;SHT31;52423;43.512;5.220;2023-05-07T05:15:56;15.49;69.71
65707;SHT31;52423;43.512;5.220;2023-05-07T05:18:22;15.48;69.82
65707;SHT31;52423;43.512;5.220;2023-05-07T05:20:47;15.53;70.14
65707;SHT31;52423;43.512;5.220;2023-05-07T05:23:13;15.55;70.25
65707;SHT31;52423;43.512;5.220;2023-05-07T05:25:38;15.58;70.52
65707;SHT31;52423;43.512;5.220;2023-05-07T05:28:04;15.48;71.13
65707;SHT31;52423;43.512;5.220;2023-05-07T05:30:30;15.41;71.31
65707;SHT31;52423;43.512;5.220;2023-05-07T05:32:55;15.41;71.73
65707;SHT31;52423;43.512;5.220;2023-05-07T05:35:20;15.42;71.83
65707;SHT31;52423;43.512;5.220;2023-05-07T05:37:46;15.44;72.35
65707;SHT31;52423;43.512;5.220;2023-05-07T05:40:12;15.51;72.25
65707;SHT31;52423;43.512;5.220;2023-05-07T05:42:37;15.52;72.15
65707;SHT31;52423;43.512;5.220;2023-05-07T05:45:03;15.55;72.18
65707;SHT31;52423;43.512;5.220;2023-05-07T05:47:29;15.53;72.84
65707;SHT31;52423;43.512;5.220;2023-05-07T05:49:54;15.65;73.57
65707;SHT31;52423;43.512;5.220;2023-05-07T05:52:20;15.70;72.88
65707;SHT31;52423;43.512;5.220;2023-05-07T05:54:48;15.70;73.48
65707;SHT31;52423;43.512;5.220;2023-05-07T05:57:13;15.62;73.91
65707;SHT31;52423;43.512;5.220;2023-05-07T05:59:39;15.51;74.50
65707;SHT31;52423;43.512;5.220;2023-05-07T06:02:04;15.48;75.00
65707;SHT31;52423;43.512;5.220;2023-05-07T06:04:30;15.41;75.09
65707;SHT31;52423;43.512;5.220;2023-05-07T06:06:55;15.44;74.86
65707;SHT31;52423;43.512;5.220;2023-05-07T06:09:21;15.48;74.83
65707;SHT31;52423;43.512;5.220;2023-05-07T06:11:47;15.35;75.98
65707;SHT31;52423;43.512;5.220;2023-05-07T06:14:12;15.41;75.20
65707;SHT31;52423;43.512;5.220;2023-05-07T06:16:37;15.42;75.52
65707;SHT31;52423;43.512;5.220;2023-05-07T06:19:03;15.44;75.55
65707;SHT31;52423;43.512;5.220;2023-05-07T06:21:28;15.46;75.61
65707;SHT31;52423;43.512;5.220;2023-05-07T06:23:54;15.53;75.55
65707;SHT31;52423;43.512;5.220;2023-05-07T06:26:20;15.58;75.20
65707;SHT31;52423;43.512;5.220;2023-05-07T06:28:45;15.61;75.03
65707;SHT31;52423;43.512;5.220;2023-05-07T06:31:19;15.66;75.12
65707;SHT31;52423;43.512;5.220;2023-05-07T06:33:48;15.69;75.09
65707;SHT31;52423;43.512;5.220;2023-05-07T06:36:14;15.72;75.01
65707;SHT31;52423;43.512;5.220;2023-05-07T06:38:39;15.82;75.08
65707;SHT31;52423;43.512;5.220;2023-05-07T06:41:06;15.94;74.82
65707;SHT31;52423;43.512;5.220;2023-05-07T06:43:32;16.18;74.11
65707;SHT31;52423;43.512;5.220;2023-05-07T06:45:57;16.37;73.94
65707;SHT31;52423;43.512;5.220;2023-05-07T06:48:22;16.45;73.98
65707;SHT31;52423;43.512;5.220;2023-05-07T06:50:48;16.64;73.97
65707;SHT31;52423;43.512;5.220;2023-05-07T06:53:13;16.79;73.49
65707;SHT31;52423;43.512;5.220;2023-05-07T06:55:38;17.18;72.79
65707;SHT31;52423;43.512;5.220;2023-05-07T06:58:04;17.46;72.85
65707;SHT31;52423;43.512;5.220;2023-05-07T07:00:29;17.47;71.79
65707;SHT31;52423;43.512;5.220;2023-05-07T07:02:56;17.42;72.05
65707;SHT31;52423;43.512;5.220;2023-05-07T07:05:23;17.46;72.16
65707;SHT31;52423;43.512;5.220;2023-05-07T07:07:48;17.39;72.58
65707;SHT31;52423;43.512;5.220;2023-05-07T07:10:20;17.43;72.79
65707;SHT31;52423;43.512;5.220;2023-05-07T07:12:45;17.53;72.82
65707;SHT31;52423;43.512;5.220;2023-05-07T07:15:11;17.93;72.20
65707;SHT31;52423;43.512;5.220;2023-05-07T07:17:36;18.21;70.75
65707;SHT31;52423;43.512;5.220;2023-05-07T07:20:02;18.57;70.15
65707;SHT31;52423;43.512;5.220;2023-05-07T07:22:28;18.42;69.45
65707;SHT31;52423;43.512;5.220;2023-05-07T07:24:53;18.66;70.53
65707;SHT31;52423;43.512;5.220;2023-05-07T07:27:19;18.76;67.97
65707;SHT31;52423;43.512;5.220;2023-05-07T07:29:44;18.94;68.50
65707;SHT31;52423;43.512;5.220;2023-05-07T07:32:10;19.31;67.87
65707;SHT31;52423;43.512;5.220;2023-05-07T07:34:35;19.59;67.30
65707;SHT31;52423;43.512;5.220;2023-05-07T07:37:00;19.72;66.08
65707;SHT31;52423;43.512;5.220;2023-05-07T07:39:30;19.99;65.53
65707;SHT31;52423;43.512;5.220;2023-05-07T07:41:56;19.83;65.31
65707;SHT31;52423;43.512;5.220;2023-05-07T07:44:21;19.74;66.09
65707;SHT31;52423;43.512;5.220;2023-05-07T07:46:47;19.86;65.34
65707;SHT31;52423;43.512;5.220;2023-05-07T07:49:12;20.03;64.03
65707;SHT31;52423;43.512;5.220;2023-05-07T07:51:37;20.03;62.64
65707;SHT31;52423;43.512;5.220;2023-05-07T07:54:03;20.19;62.24
65707;SHT31;52423;43.512;5.220;2023-05-07T07:56:29;19.92;60.98
65707;SHT31;52423;43.512;5.220;2023-05-07T07:58:54;20.08;60.35
65707;SHT31;52423;43.512;5.220;2023-05-07T08:01:20;19.90;61.22
65707;SHT31;52423;43.512;5.220;2023-05-07T08:03:45;20.06;61.32
65707;SHT31;52423;43.512;5.220;2023-05-07T08:06:11;20.34;56.84
65707;SHT31;52423;43.512;5.220;2023-05-07T08:08:36;20.37;58.18
65707;SHT31;52423;43.512;5.220;2023-05-07T08:11:01;20.20;58.61
65707;SHT31;52423;43.512;5.220;2023-05-07T08:13:27;20.67;56.78
65707;SHT31;52423;43.512;5.220;2023-05-07T08:15:52;20.95;56.63
65707;SHT31;52423;43.512;5.220;2023-05-07T08:18:17;21.16;55.46
65707;SHT31;52423;43.512;5.220;2023-05-07T08:20:43;21.12;55.52
65707;SHT31;52423;43.512;5.220;2023-05-07T08:23:08;21.39;55.16
65707;SHT31;52423;43.512;5.220;2023-05-07T08:25:34;21.45;53.93
65707;SHT31;52423;43.512;5.220;2023-05-07T08:28:00;21.72;54.01
65707;SHT31;52423;43.512;5.220;2023-05-07T08:30:26;21.56;53.17
65707;SHT31;52423;43.512;5.220;2023-05-07T08:32:51;21.57;53.53
65707;SHT31;52423;43.512;5.220;2023-05-07T08:35:16;21.56;53.79
65707;SHT31;52423;43.512;5.220;2023-05-07T08:37:42;22.08;52.44
65707;SHT31;52423;43.512;5.220;2023-05-07T08:40:07;22.24;50.81
65707;SHT31;52423;43.512;5.220;2023-05-07T08:42:35;22.41;51.36
65707;SHT31;52423;43.512;5.220;2023-05-07T08:45:03;22.64;52.20
65707;SHT31;52423;43.512;5.220;2023-05-07T08:47:38;22.68;51.42
65707;SHT31;52423;43.512;5.220;2023-05-07T08:50:04;22.71;49.55
65707;SHT31;52423;43.512;5.220;2023-05-07T08:52:31;22.51;50.63
65707;SHT31;52423;43.512;5.220;2023-05-07T08:54:56;22.52;52.96
65707;SHT31;52423;43.512;5.220;2023-05-07T08:57:22;22.31;55.27
65707;SHT31;52423;43.512;5.220;2023-05-07T08:59:49;22.33;55.48
65707;SHT31;52423;43.512;5.220;2023-05-07T09:02:15;22.33;57.10
65707;SHT31;52423;43.512;5.220;2023-05-07T09:04:41;22.24;58.22
65707;SHT31;52423;43.512;5.220;2023-05-07T09:07:07;22.15;58.93
65707;SHT31;52423;43.512;5.220;2023-05-07T09:09:32;22.21;59.50
65707;SHT31;52423;43.512;5.220;2023-05-07T09:11:59;22.00;60.39
65707;SHT31;52423;43.512;5.220;2023-05-07T09:14:25;21.94;60.18
65707;SHT31;52423;43.512;5.220;2023-05-07T09:16:52;21.86;61.09
65707;SHT31;52423;43.512;5.220;2023-05-07T09:19:22;21.84;61.89
65707;SHT31;52423;43.512;5.220;2023-05-07T09:21:48;21.83;62.60
65707;SHT31;52423;43.512;5.220;2023-05-07T09:24:15;21.63;63.63
65707;SHT31;52423;43.512;5.220;2023-05-07T09:26:41;21.57;62.86
65707;SHT31;52423;43.512;5.220;2023-05-07T09:29:07;21.43;62.81
65707;SHT31;52423;43.512;5.220;2023-05-07T09:31:37;21.50;62.41
65707;SHT31;52423;43.512;5.220;2023-05-07T09:34:04;21.70;61.35
65707;SHT31;52423;43.512;5.220;2023-05-07T09:36:31;21.59;60.25
65707;SHT31;52423;43.512;5.220;2023-05-07T09:38:59;21.59;60.50
65707;SHT31;52423;43.512;5.220;2023-05-07T09:41:24;21.73;59.44
65707;SHT31;52423;43.512;5.220;2023-05-07T09:43:54;21.64;59.10
65707;SHT31;52423;43.512;5.220;2023-05-07T09:46:28;21.57;58.99
65707;SHT31;52423;43.512;5.220;2023-05-07T09:48:57;21.94;58.06
65707;SHT31;52423;43.512;5.220;2023-05-07T09:51:30;22.30;55.01
65707;SHT31;52423;43.512;5.220;2023-05-07T09:53:59;22.34;54.20
65707;SHT31;52423;43.512;5.220;2023-05-07T09:56:29;22.55;53.75
65707;SHT31;52423;43.512;5.220;2023-05-07T09:58:56;22.37;52.59
65707;SHT31;52423;43.512;5.220;2023-05-07T10:01:23;22.64;52.51
65707;SHT31;52423;43.512;5.220;2023-05-07T10:03:51;22.86;51.72
65707;SHT31;52423;43.512;5.220;2023-05-07T10:06:16;22.98;50.97
65707;SHT31;52423;43.512;5.220;2023-05-07T10:08:43;23.20;51.04
65707;SHT31;52423;43.512;5.220;2023-05-07T10:11:09;23.16;51.18
65707;SHT31;52423;43.512;5.220;2023-05-07T10:13:35;23.09;50.68
65707;SHT31;52423;43.512;5.220;2023-05-07T10:16:05;23.20;51.15
65707;SHT31;52423;43.512;5.220;2023-05-07T10:18:32;22.83;51.87
65707;SHT31;52423;43.512;5.220;2023-05-07T10:21:16;23.02;50.57
65707;SHT31;52423;43.512;5.220;2023-05-07T10:23:45;23.40;50.77
65707;SHT31;52423;43.512;5.220;2023-05-07T10:26:12;23.51;49.46
65707;SHT31;52423;43.512;5.220;2023-05-07T10:28:40;23.70;48.79
65707;SHT31;52423;43.512;5.220;2023-05-07T10:33:51;23.71;49.18
65707;SHT31;52423;43.512;5.220;2023-05-07T10:36:18;23.88;49.39
65707;SHT31;52423;43.512;5.220;2023-05-07T10:38:45;24.00;49.10
65707;SHT31;52423;43.512;5.220;2023-05-07T10:41:11;23.85;49.91
65707;SHT31;52423;43.512;5.220;2023-05-07T10:43:41;23.51;50.61
65707;SHT31;52423;43.512;5.220;2023-05-07T10:46:18;23.24;50.94
65707;SHT31;52423;43.512;5.220;2023-05-07T10:51:29;23.88;52.39
65707;SHT31;52423;43.512;5.220;2023-05-07T10:54:18;23.94;52.77
65707;SHT31;52423;43.512;5.220;2023-05-07T10:56:43;23.92;51.56
65707;SHT31;52423;43.512;5.220;2023-05-07T11:02:01;24.28;50.41
65707;SHT31;52423;43.512;5.220;2023-05-07T11:04:32;24.46;51.17
65707;SHT31;52423;43.512;5.220;2023-05-07T11:15:10;24.35;52.64
65707;SHT31;52423;43.512;5.220;2023-05-07T11:17:55;24.57;52.95
65707;SHT31;52423;43.512;5.220;2023-05-07T11:20:44;24.55;53.31
65707;SHT31;52423;43.512;5.220;2023-05-07T11:26:07;24.73;53.82
65707;SHT31;52423;43.512;5.220;2023-05-07T11:28:38;24.56;54.19
65707;SHT31;52423;43.512;5.220;2023-05-07T11:31:04;24.91;53.81
65707;SHT31;52423;43.512;5.220;2023-05-07T11:33:33;24.95;53.15
65707;SHT31;52423;43.512;5.220;2023-05-07T11:36:03;24.87;53.24
65707;SHT31;52423;43.512;5.220;2023-05-07T11:38:30;25.00;53.66
65707;SHT31;52423;43.512;5.220;2023-05-07T11:40:58;24.97;52.63
65707;SHT31;52423;43.512;5.220;2023-05-07T11:43:26;25.17;53.06
65707;SHT31;52423;43.512;5.220;2023-05-07T11:45:51;25.23;52.15
65707;SHT31;52423;43.512;5.220;2023-05-07T11:48:17;25.10;52.47
65707;SHT31;52423;43.512;5.220;2023-05-07T11:50:59;25.20;52.38
65707;SHT31;52423;43.512;5.220;2023-05-07T11:53:26;25.52;52.38
65707;SHT31;52423;43.512;5.220;2023-05-07T11:55:55;25.66;51.27
65707;SHT31;52423;43.512;5.220;2023-05-07T11:58:22;25.59;51.73
65707;SHT31;52423;43.512;5.220;2023-05-07T12:00:49;25.44;51.84
65707;SHT31;52423;43.512;5.220;2023-05-07T12:03:15;25.28;52.54
65707;SHT31;52423;43.512;5.220;2023-05-07T12:05:40;25.45;52.55
65707;SHT31;52423;43.512;5.220;2023-05-07T12:08:07;25.49;52.89
65707;SHT31;52423;43.512;5.220;2023-05-07T12:10:32;25.52;52.94
65707;SHT31;52423;43.512;5.220;2023-05-07T12:12:58;25.86;51.47
65707;SHT31;52423;43.512;5.220;2023-05-07T12:15:23;25.82;51.45
65707;SHT31;52423;43.512;5.220;2023-05-07T12:17:48;25.58;51.05
65707;SHT31;52423;43.512;5.220;2023-05-07T12:20:14;25.89;51.02
65707;SHT31;52423;43.512;5.220;2023-05-07T12:22:40;25.96;50.61
65707;SHT31;52423;43.512;5.220;2023-05-07T12:25:06;25.63;51.43
65707;SHT31;52423;43.512;5.220;2023-05-07T12:27:32;26.07;50.89
65707;SHT31;52423;43.512;5.220;2023-05-07T12:29:57;26.03;49.47
65707;SHT31;52423;43.512;5.220;2023-05-07T12:32:24;25.95;50.62
65707;SHT31;52423;43.512;5.220;2023-05-07T12:34:50;26.16;49.97
65707;SHT31;52423;43.512;5.220;2023-05-07T12:37:16;26.32;49.92
65707;SHT31;52423;43.512;5.220;2023-05-07T12:39:47;26.36;50.06
65707;SHT31;52423;43.512;5.220;2023-05-07T12:42:16;25.82;51.10
65707;SHT31;52423;43.512;5.220;2023-05-07T12:44:46;25.88;51.32
65707;SHT31;52423;43.512;5.220;2023-05-07T12:47:11;26.00;51.21
65707;SHT31;52423;43.512;5.220;2023-05-07T12:49:37;26.07;50.13
65707;SHT31;52423;43.512;5.220;2023-05-07T12:52:04;25.81;50.21
65707;SHT31;52423;43.512;5.220;2023-05-07T12:54:33;26.22;50.13
65707;SHT31;52423;43.512;5.220;2023-05-07T12:57:03;26.36;48.90
65707;SHT31;52423;43.512;5.220;2023-05-07T12:59:36;26.41;48.74
65707;SHT31;52423;43.512;5.220;2023-05-07T13:02:01;26.32;47.76
65707;SHT31;52423;43.512;5.220;2023-05-07T13:04:27;26.40;47.66
65707;SHT31;52423;43.512;5.220;2023-05-07T13:06:52;26.32;48.01
65707;SHT31;52423;43.512;5.220;2023-05-07T13:09:18;26.43;46.53
65707;SHT31;52423;43.512;5.220;2023-05-07T13:11:43;26.12;47.43
65707;SHT31;52423;43.512;5.220;2023-05-07T13:14:08;26.19;47.74
65707;SHT31;52423;43.512;5.220;2023-05-07T13:16:34;25.93;47.78
65707;SHT31;52423;43.512;5.220;2023-05-07T13:18:59;26.19;48.75
65707;SHT31;52423;43.512;5.220;2023-05-07T13:21:24;26.26;47.69
65707;SHT31;52423;43.512;5.220;2023-05-07T13:23:50;26.51;46.61
65707;SHT31;52423;43.512;5.220;2023-05-07T13:26:15;26.90;45.99
65707;SHT31;52423;43.512;5.220;2023-05-07T13:28:41;26.77;46.01
65707;SHT31;52423;43.512;5.220;2023-05-07T13:31:07;26.61;46.42
65707;SHT31;52423;43.512;5.220;2023-05-07T13:33:32;26.73;45.80
65707;SHT31;52423;43.512;5.220;2023-05-07T13:35:57;26.63;46.02
65707;SHT31;52423;43.512;5.220;2023-05-07T13:38:23;26.40;46.29
65707;SHT31;52423;43.512;5.220;2023-05-07T13:40:48;26.39;46.15
65707;SHT31;52423;43.512;5.220;2023-05-07T13:43:13;26.37;46.41
65707;SHT31;52423;43.512;5.220;2023-05-07T13:45:39;26.37;45.77
65707;SHT31;52423;43.512;5.220;2023-05-07T13:48:05;26.24;46.62
65707;SHT31;52423;43.512;5.220;2023-05-07T13:50:30;26.39;46.03
65707;SHT31;52423;43.512;5.220;2023-05-07T13:52:56;26.29;46.28
65707;SHT31;52423;43.512;5.220;2023-05-07T13:55:23;26.14;46.42
65707;SHT31;52423;43.512;5.220;2023-05-07T13:57:58;25.99;45.90
65707;SHT31;52423;43.512;5.220;2023-05-07T14:00:25;26.03;45.89
65707;SHT31;52423;43.512;5.220;2023-05-07T14:02:50;26.06;45.99
65707;SHT31;52423;43.512;5.220;2023-05-07T14:05:16;25.90;45.78
65707;SHT31;52423;43.512;5.220;2023-05-07T14:07:41;25.95;46.12
65707;SHT31;52423;43.512;5.220;2023-05-07T14:10:07;25.85;45.84
65707;SHT31;52423;43.512;5.220;2023-05-07T14:12:32;25.83;49.34
65707;SHT31;52423;43.512;5.220;2023-05-07T14:14:58;25.65;51.40
65707;SHT31;52423;43.512;5.220;2023-05-07T14:17:24;25.48;52.44
65707;SHT31;52423;43.512;5.220;2023-05-07T14:19:51;25.39;55.80
65707;SHT31;52423;43.512;5.220;2023-05-07T14:22:20;25.23;57.66
65707;SHT31;52423;43.512;5.220;2023-05-07T14:24:45;24.93;55.25
65707;SHT31;52423;43.512;5.220;2023-05-07T14:27:10;25.10;57.31
65707;SHT31;52423;43.512;5.220;2023-05-07T14:29:36;25.01;58.08
65707;SHT31;52423;43.512;5.220;2023-05-07T14:32:02;25.18;55.02
65707;SHT31;52423;43.512;5.220;2023-05-07T14:34:28;25.00;54.55
65707;SHT31;52423;43.512;5.220;2023-05-07T14:36:53;25.03;54.39
65707;SHT31;52423;43.512;5.220;2023-05-07T14:39:19;25.14;53.78
65707;SHT31;52423;43.512;5.220;2023-05-07T14:41:44;25.14;53.84
65707;SHT31;52423;43.512;5.220;2023-05-07T14:44:09;25.08;53.51
65707;SHT31;52423;43.512;5.220;2023-05-07T14:46:35;24.94;54.98
65707;SHT31;52423;43.512;5.220;2023-05-07T14:49:01;24.70;56.27
65707;SHT31;52423;43.512;5.220;2023-05-07T14:51:27;24.64;56.91
65707;SHT31;52423;43.512;5.220;2023-05-07T14:53:53;24.55;56.37
65707;SHT31;52423;43.512;5.220;2023-05-07T14:56:19;24.45;57.30
65707;SHT31;52423;43.512;5.220;2023-05-07T14:58:46;24.56;57.47
65707;SHT31;52423;43.512;5.220;2023-05-07T15:01:12;24.39;57.69
65707;SHT31;52423;43.512;5.220;2023-05-07T15:03:37;24.26;58.99
65707;SHT31;52423;43.512;5.220;2023-05-07T15:06:03;24.19;59.71
65707;SHT31;52423;43.512;5.220;2023-05-07T15:08:28;24.15;59.09
65707;SHT31;52423;43.512;5.220;2023-05-07T15:10:54;24.09;58.85
65707;SHT31;52423;43.512;5.220;2023-05-07T15:13:20;24.02;59.03
65707;SHT31;52423;43.512;5.220;2023-05-07T15:15:45;24.12;58.73
65707;SHT31;52423;43.512;5.220;2023-05-07T15:18:11;23.98;58.76
65707;SHT31;52423;43.512;5.220;2023-05-07T15:20:37;23.98;59.32
65707;SHT31;52423;43.512;5.220;2023-05-07T15:23:02;24.00;59.23
65707;SHT31;52423;43.512;5.220;2023-05-07T15:25:30;24.01;58.97
65707;SHT31;52423;43.512;5.220;2023-05-07T15:27:56;24.16;58.60
65707;SHT31;52423;43.512;5.220;2023-05-07T15:30:21;24.21;58.02
65707;SHT31;52423;43.512;5.220;2023-05-07T15:32:48;23.92;57.82
65707;SHT31;52423;43.512;5.220;2023-05-07T15:35:13;24.01;58.07
65707;SHT31;52423;43.512;5.220;2023-05-07T15:37:38;24.02;58.02
65707;SHT31;52423;43.512;5.220;2023-05-07T15:40:05;23.88;58.77
65707;SHT31;52423;43.512;5.220;2023-05-07T15:42:32;24.00;58.32
65707;SHT31;52423;43.512;5.220;2023-05-07T15:44:58;23.89;58.14